Главная страница
METAR-TAF:

METAR-TAF

Аэропорты :

Задар, Хорватия

широта: 44-06N, долгота: 015-21E, высота над уровнем моря: 82 м

Текущие метеонаблюдения

Эта сводка был подготовлена 25 минут назад, в 02:30 UTC
Ветер 2 Узел переменных направлений
Температура 9°C
Влажность 93%
Давление 1019 hPa
Видимость 10 км и более
Нет облачности ниже 1500 м, и нет кучево-дождевой облачности

METAR: LDZD 200230Z VRB02KT CAVOK 09/08 Q1019 NOSIG

Время: 04:55 (02:55 UTC)

Прогноз

Эта сводка был подготовлена 3 часа и 30 минут назад, в 23:25 UTC
Прогноз действительный с 20-го 00 UTC до 21-го 00 UTC
Ветер 6 Узел от восточно-северо-восточный
Видимость 10 км и более
Нет облачности ниже 1500 м, и нет кучево-дождевой облачности
временами
С 20-го 00 UTC до 21-го 00 UTC
Ветер 12 Узел от восточно-северо-восточный

TAF: LDZD 192325Z 2000/2100 06006KT CAVOK TX25/2013Z TN09/2004Z TEMPO 2000/2100 06012KT

Метеонаблюдения и прогнозы для более 4000 аэропортов (сводки METAR и TAF).

Имеющиеся станции представлены на карте желтыми и красными точками.

Чтобы увидеть название станции, наведите на нее мышь.

Затем щелкните, чтобы увидеть метеонаблюдения и метеопрогнозы.

Управление картой: чтобы увеличить масштаб, щелкните зеленые кнопки с черным крестиком; чтобы уменьшить масштаб, щелкните зеленую кнопку с тире; для просмотра соседних карт щелкайте зеленые стрелки.


METAR-TAF: